Time;durP1;ratioP1;P1;durP2;ratioP2;P2;SDS_P1;SDS_P2;PMS_P1;PMS_P2;Temp;Humidity;BMP_temperature;BMP_pressure;BME280_temperature;BME280_humidity;BME280_pressure;Samples;Min_cycle;Max_cycle;Signal;HPM_P1;HPM_P2
2023/09/09 00:01:29;;;;;;;15.15;5.15;;;;;;;26.72;37.41;98687.34;5092297;28;20024;-45
2023/09/09 00:03:56;;;;;;;14.85;4.22;;;;;;;26.66;36.59;98687.47;5090638;28;20046;-45
2023/09/09 00:06:22;;;;;;;8.07;3.72;;;;;;;26.36;37.06;98688.97;5092011;28;20087;-45
2023/09/09 00:08:48;;;;;;;28.73;4.93;;;;;;;26.24;37.40;98678.75;5091939;28;20054;-45
2023/09/09 00:11:14;;;;;;;17.02;5.82;;;;;;;26.38;37.34;98689.47;5091937;28;20041;-46
2023/09/09 00:13:39;;;;;;;15.45;6.65;;;;;;;26.29;36.87;98694.75;5090965;28;20101;-45
2023/09/09 00:16:05;;;;;;;6.05;3.50;;;;;;;26.07;36.92;98689.34;5091679;28;20506;-46
2023/09/09 00:18:31;;;;;;;21.27;8.70;;;;;;;25.78;37.68;98690.47;5091847;28;20083;-45
2023/09/09 00:20:57;;;;;;;12.60;5.60;;;;;;;25.80;37.75;98690.16;5073750;28;20089;-45
2023/09/09 00:23:22;;;;;;;11.05;4.40;;;;;;;25.82;37.74;98694.13;5091817;28;20074;-45
2023/09/09 00:25:48;;;;;;;13.70;5.47;;;;;;;25.80;37.57;98684.78;5091770;28;20032;-45
2023/09/09 00:28:14;;;;;;;12.43;4.25;;;;;;;25.58;37.78;98694.34;5091651;28;20073;-45
2023/09/09 00:30:40;;;;;;;15.95;4.40;;;;;;;25.55;37.63;98688.78;5090427;28;20029;-45
2023/09/09 00:33:09;;;;;;;14.32;4.65;;;;;;;25.58;37.81;98696.25;5073725;28;20027;-45
2023/09/09 00:35:38;;;;;;;18.02;7.38;;;;;;;25.76;37.80;98689.97;5091681;28;20039;-45
2023/09/09 00:38:06;;;;;;;8.32;4.20;;;;;;;25.86;37.08;98697.03;5091681;28;20016;-45
2023/09/09 00:40:32;;;;;;;10.10;4.53;;;;;;;25.61;37.23;98691.06;5091688;28;20027;-45
2023/09/09 00:42:57;;;;;;;8.18;4.80;;;;;;;25.46;37.72;98700.22;5090374;28;20028;-45
2023/09/09 00:45:24;;;;;;;6.90;3.75;;;;;;;25.58;37.47;98696.25;5091620;28;20123;-45
2023/09/09 00:47:49;;;;;;;9.88;4.70;;;;;;;25.56;37.11;98696.53;5091576;28;20021;-45
2023/09/09 00:50:15;;;;;;;9.88;4.07;;;;;;;25.54;37.47;98690.66;5094297;28;20081;-45
2023/09/09 00:52:42;;;;;;;9.55;4.50;;;;;;;25.34;37.51;98697.22;5094268;28;20024;-45
2023/09/09 00:55:11;;;;;;;7.03;3.90;;;;;;;25.22;37.24;98694.25;5094281;28;20078;-45
2023/09/09 00:57:37;;;;;;;7.03;4.45;;;;;;;25.17;37.71;98691.59;5095549;28;20028;-45
2023/09/09 01:00:09;;;;;;;14.20;5.88;;;;;;;25.18;37.82;98693.22;5095652;28;20024;-45
2023/09/09 01:02:37;;;;;;;11.75;4.75;;;;;;;25.45;37.53;98704.00;5094529;28;20104;-45
2023/09/09 01:05:04;;;;;;;29.58;5.95;;;;;;;25.66;37.25;98698.25;5094053;28;20401;-45
2023/09/09 01:07:42;;;;;;;9.38;4.35;;;;;;;25.80;36.60;98684.78;5093916;28;20073;-45
2023/09/09 01:10:08;;;;;;;26.33;6.68;;;;;;;25.92;36.68;98693.16;5095512;28;20047;-45
2023/09/09 01:12:33;;;;;;;97.30;10.60;;;;;;;25.93;37.50;98694.75;5095212;28;20482;-45
2023/09/09 01:14:59;;;;;;;116.85;12.60;;;;;;;25.96;37.74;98699.53;5093589;28;20402;-45
2023/09/09 01:17:25;;;;;;;103.20;13.77;;;;;;;26.11;37.43;98691.13;5095052;28;20035;-45
2023/09/09 01:19:55;;;;;;;16.92;4.60;;;;;;;26.20;36.78;98695.78;5095057;28;20020;-45
2023/09/09 01:22:20;;;;;;;40.80;7.90;;;;;;;26.07;36.57;98686.66;5094934;28;20020;-45
2023/09/09 01:24:46;;;;;;;25.58;5.50;;;;;;;26.18;36.94;98697.97;5094968;28;20023;-45
2023/09/09 01:27:12;;;;;;;21.15;6.45;;;;;;;26.32;36.63;98696.06;5094839;28;20078;-45
2023/09/09 01:29:37;;;;;;;21.33;6.72;;;;;;;26.37;35.98;98692.44;5093562;28;20020;-45
2023/09/09 01:32:03;;;;;;;27.60;6.60;;;;;;;26.20;36.49;98698.47;5094826;28;20055;-46
2023/09/09 01:34:29;;;;;;;8.90;4.40;;;;;;;25.99;37.55;98695.44;5094696;28;20055;-45
2023/09/09 01:36:54;;;;;;;29.83;6.30;;;;;;;25.71;38.67;98698.91;5094689;28;20039;-45
2023/09/09 01:39:20;;;;;;;16.80;5.38;;;;;;;25.64;38.83;98708.50;5093409;28;20420;-45
2023/09/09 01:41:46;;;;;;;13.40;5.45;;;;;;;25.56;39.02;98701.91;5094591;28;20543;-45
2023/09/09 01:44:11;;;;;;;7.68;4.43;;;;;;;25.55;39.08;98708.38;5094663;28;20528;-45
2023/09/09 01:46:37;;;;;;;11.88;4.40;;;;;;;25.40;40.41;98704.09;5094802;28;20051;-45
2023/09/09 01:49:03;;;;;;;11.13;4.60;;;;;;;25.07;40.44;98703.31;5093101;28;20027;-45
2023/09/09 01:51:28;;;;;;;27.30;5.53;;;;;;;24.57;41.82;98703.06;5094444;28;20024;-46
2023/09/09 01:53:54;;;;;;;22.83;6.00;;;;;;;24.43;43.15;98711.84;5093052;28;20442;-45
2023/09/09 01:56:20;;;;;;;8.68;4.80;;;;;;;24.45;40.78;98704.28;5093296;28;20034;-45
2023/09/09 01:58:45;;;;;;;17.88;5.75;;;;;;;24.45;40.94;98711.56;5094351;28;20024;-45
2023/09/09 02:01:11;;;;;;;12.32;5.05;;;;;;;24.76;42.29;98709.22;5093408;28;20016;-45
2023/09/09 02:03:36;;;;;;;12.25;5.07;;;;;;;24.82;41.85;98710.72;5093188;28;20462;-45
2023/09/09 02:06:02;;;;;;;14.40;4.90;;;;;;;24.84;41.29;98716.59;5094194;28;20111;-45
2023/09/09 02:08:28;;;;;;;13.70;4.70;;;;;;;24.66;41.18;98714.75;5094054;28;20393;-45
2023/09/09 02:10:54;;;;;;;11.68;4.15;;;;;;;24.78;41.93;98711.59;5092912;28;20020;-45
2023/09/09 02:13:19;;;;;;;12.30;5.00;;;;;;;24.74;41.57;98708.69;5094343;28;20091;-45
2023/09/09 02:15:45;;;;;;;8.20;4.18;;;;;;;24.70;41.82;98711.16;5092391;28;20075;-45
2023/09/09 02:18:11;;;;;;;11.30;4.80;;;;;;;24.51;42.71;98719.25;5092656;28;20064;-45
2023/09/09 02:20:36;;;;;;;12.57;4.30;;;;;;;24.40;43.05;98715.09;5092541;28;20020;-45
2023/09/09 02:23:02;;;;;;;10.20;4.70;;;;;;;24.39;43.54;98715.38;5093848;28;20070;-45
2023/09/09 02:25:27;;;;;;;11.80;4.82;;;;;;;24.44;43.51;98716.09;5092515;28;20043;-45
2023/09/09 02:27:53;;;;;;;10.20;5.05;;;;;;;24.29;43.38;98705.59;5092329;28;20035;-45
2023/09/09 02:30:19;;;;;;;11.77;5.45;;;;;;;24.07;44.70;98715.00;5093758;28;20032;-45
2023/09/09 02:32:46;;;;;;;6.93;4.55;;;;;;;23.88;45.05;98712.28;5092374;28;20032;-45
2023/09/09 02:35:12;;;;;;;8.48;4.80;;;;;;;23.85;45.84;98720.13;5093650;28;20099;-45
2023/09/09 02:37:37;;;;;;;28.08;8.18;;;;;;;23.79;45.71;98713.22;5092277;28;20120;-45
2023/09/09 02:40:03;;;;;;;7.15;4.75;;;;;;;24.01;44.53;98712.69;5092536;28;20031;-45
2023/09/09 02:42:29;;;;;;;13.20;5.47;;;;;;;23.98;44.64;98715.94;5093522;28;20024;-45
2023/09/09 02:44:55;;;;;;;16.60;6.55;;;;;;;23.75;46.05;98714.84;5093518;28;20020;-45
2023/09/09 02:47:20;;;;;;;19.42;8.30;;;;;;;23.68;46.90;98716.00;5093374;28;20063;-45
2023/09/09 02:49:46;;;;;;;9.20;4.90;;;;;;;23.73;46.36;98721.28;5093580;28;20024;-45
2023/09/09 02:52:13;;;;;;;10.05;5.22;;;;;;;23.71;46.99;98718.09;5093297;28;20020;-45
2023/09/09 02:54:39;;;;;;;10.55;5.65;;;;;;;23.69;47.25;98720.25;5093260;28;20404;-45
2023/09/09 02:57:05;;;;;;;10.13;6.25;;;;;;;23.54;47.90;98723.09;5093167;28;20512;-45
2023/09/09 02:59:34;;;;;;;7.75;5.28;;;;;;;23.36;48.58;98723.84;5092097;28;20047;-45
2023/09/09 03:02:00;;;;;;;13.10;5.82;;;;;;;22.88;49.96;98724.53;5091738;28;20054;-45
2023/09/09 03:04:26;;;;;;;12.00;6.70;;;;;;;22.64;50.39;98721.75;5091755;28;20024;-45
2023/09/09 03:06:52;;;;;;;8.57;5.53;;;;;;;22.93;50.13;98719.13;5091898;28;20363;-45
2023/09/09 03:09:17;;;;;;;7.65;4.72;;;;;;;22.77;50.29;98718.44;5093308;28;20037;-45
2023/09/09 03:11:43;;;;;;;10.48;5.90;;;;;;;22.82;50.66;98718.41;5092971;28;20056;-45
2023/09/09 03:14:09;;;;;;;7.13;5.30;;;;;;;22.99;50.78;98722.56;5092674;28;20098;-46
2023/09/09 03:16:38;;;;;;;13.20;8.55;;;;;;;22.94;50.57;98721.53;5092780;28;20044;-45
2023/09/09 03:19:04;;;;;;;13.68;5.78;;;;;;;22.85;51.30;98733.88;5091928;28;20060;-45
2023/09/09 03:21:30;;;;;;;14.52;6.20;;;;;;;22.68;51.57;98731.63;5093010;28;20034;-45
2023/09/09 03:23:56;;;;;;;10.80;5.30;;;;;;;22.66;51.87;98724.97;5091385;28;20027;-45
2023/09/09 03:26:23;;;;;;;12.27;5.80;;;;;;;22.61;52.47;98728.44;5091423;28;20023;-45
2023/09/09 03:28:50;;;;;;;8.43;6.13;;;;;;;22.63;52.42;98730.84;5091449;28;20036;-45
2023/09/09 03:31:16;;;;;;;16.67;6.30;;;;;;;22.58;52.83;98730.88;5092556;28;20012;-45
2023/09/09 03:33:41;;;;;;;24.33;11.93;;;;;;;22.48;52.81;98729.09;5092464;28;20026;-45
2023/09/09 03:36:08;;;;;;;9.18;5.65;;;;;;;22.50;52.90;98738.44;5091163;28;20023;-45
2023/09/09 03:38:36;;;;;;;12.32;6.55;;;;;;;22.35;52.72;98735.84;5092658;28;20093;-45
2023/09/09 03:41:06;;;;;;;21.80;6.28;;;;;;;22.24;53.43;98727.06;5091110;28;20471;-45
2023/09/09 03:43:35;;;;;;;11.23;6.57;;;;;;;22.02;54.11;98729.31;5092327;28;20571;-45
2023/09/09 03:46:07;;;;;;;6.40;5.25;;;;;;;22.10;54.48;98734.06;5091207;28;20026;-45
2023/09/09 03:48:32;;;;;;;13.88;6.53;;;;;;;21.91;54.37;98731.19;5090851;28;20058;-45
2023/09/09 03:51:00;;;;;;;11.00;5.65;;;;;;;21.96;54.93;98738.41;5092186;28;20103;-45
2023/09/09 03:53:26;;;;;;;10.50;5.85;;;;;;;21.80;55.33;98741.13;5090946;28;20035;-45
2023/09/09 03:55:52;;;;;;;14.18;5.63;;;;;;;21.79;55.68;98739.53;5092373;28;20145;-45
2023/09/09 03:58:18;;;;;;;8.88;5.18;;;;;;;21.91;55.23;98737.38;5091078;28;20024;-45
2023/09/09 04:00:46;;;;;;;16.92;6.82;;;;;;;21.92;55.19;98736.28;5092004;28;20447;-45
2023/09/09 04:03:12;;;;;;;8.85;5.60;;;;;;;22.01;55.20;98736.50;5090785;28;20049;-45
2023/09/09 04:05:38;;;;;;;6.38;5.53;;;;;;;22.04;55.53;98737.84;5090949;28;20030;-45
2023/09/09 04:08:08;;;;;;;9.10;5.82;;;;;;;21.86;55.17;98733.91;5090577;28;20024;-45
2023/09/09 04:10:34;;;;;;;8.15;5.50;;;;;;;21.71;56.04;98737.41;5091963;28;20031;-45
2023/09/09 04:13:00;;;;;;;10.02;5.63;;;;;;;21.64;55.75;98735.03;5091929;28;20028;-45
2023/09/09 04:15:26;;;;;;;8.63;5.10;;;;;;;21.69;55.78;98742.22;5091723;28;20101;-45
2023/09/09 04:17:51;;;;;;;12.95;6.05;;;;;;;21.60;55.79;98730.53;5090565;28;20067;-45
2023/09/09 04:20:17;;;;;;;14.80;6.15;;;;;;;21.51;55.49;98738.25;5091920;28;20032;-45
2023/09/09 04:22:42;;;;;;;15.50;5.90;;;;;;;21.53;56.11;98741.47;5092457;28;20433;-45
2023/09/09 04:25:08;;;;;;;8.95;5.28;;;;;;;21.60;55.44;98731.31;5098446;28;20032;-45
2023/09/09 04:27:34;;;;;;;8.80;5.10;;;;;;;21.65;55.54;98728.66;5098497;28;20366;-45
2023/09/09 04:29:59;;;;;;;9.98;5.25;;;;;;;21.69;55.31;98729.69;5097353;28;20041;-45
2023/09/09 04:32:25;;;;;;;22.52;5.68;;;;;;;21.73;54.32;98725.41;5097156;28;20028;-45
2023/09/09 04:34:51;;;;;;;7.05;5.32;;;;;;;21.81;54.41;98726.72;5098475;28;20023;-45
2023/09/09 04:37:17;;;;;;;11.70;6.13;;;;;;;21.73;55.03;98720.06;5098719;28;20030;-45
2023/09/09 04:39:42;;;;;;;12.77;4.95;;;;;;;21.93;53.45;98731.72;5098460;28;20494;-45
2023/09/09 04:42:08;;;;;;;13.82;5.90;;;;;;;21.92;53.54;98738.94;5097141;28;20085;-45
2023/09/09 04:44:34;;;;;;;15.73;7.38;;;;;;;22.10;53.84;98739.41;5097049;28;20028;-45
2023/09/09 04:46:59;;;;;;;20.02;6.30;;;;;;;22.18;52.97;98738.84;5098314;28;20044;-45
2023/09/09 04:49:25;;;;;;;20.35;6.40;;;;;;;22.23;53.53;98746.03;5097075;28;20047;-45
2023/09/09 04:51:51;;;;;;;17.67;7.05;;;;;;;22.16;53.61;98742.88;5097282;28;20032;-45
2023/09/09 04:54:18;;;;;;;19.13;6.45;;;;;;;22.16;53.43;98748.22;5098416;28;20051;-45
2023/09/09 04:56:44;;;;;;;12.05;6.55;;;;;;;22.14;53.80;98749.28;5098296;28;20528;-45
2023/09/09 04:59:10;;;;;;;15.45;6.32;;;;;;;21.97;53.97;98740.78;5098252;28;20084;-45
2023/09/09 05:01:35;;;;;;;16.58;6.18;;;;;;;21.91;53.39;98745.38;5096895;28;20451;-45
2023/09/09 05:04:01;;;;;;;8.90;5.95;;;;;;;21.83;54.01;98740.59;5096934;28;20036;-45
2023/09/09 05:06:26;;;;;;;10.13;6.03;;;;;;;21.74;53.60;98747.56;5098160;28;20516;-45
2023/09/09 05:08:52;;;;;;;13.60;6.25;;;;;;;21.56;54.03;98754.28;5098063;28;20077;-45
2023/09/09 05:11:18;;;;;;;15.50;6.10;;;;;;;21.34;54.38;98754.56;5080004;28;20100;-45
2023/09/09 05:13:43;;;;;;;7.82;6.00;;;;;;;21.28;54.55;98753.78;5098132;28;20031;-45
2023/09/09 05:16:09;;;;;;;13.05;5.68;;;;;;;21.23;54.84;98767.13;5096652;28;20067;-45
2023/09/09 05:18:34;;;;;;;9.52;5.32;;;;;;;21.25;54.75;98765.00;5096806;28;20097;-45
2023/09/09 05:21:00;;;;;;;19.92;6.38;;;;;;;21.37;54.81;98769.25;5098112;28;20028;-45
2023/09/09 05:23:26;;;;;;;11.98;6.38;;;;;;;21.68;54.58;98770.81;5098083;28;20100;-45
2023/09/09 05:25:51;;;;;;;11.88;6.00;;;;;;;21.91;53.75;98765.94;5098105;28;20067;-45
2023/09/09 05:28:17;;;;;;;8.50;5.80;;;;;;;22.14;53.03;98762.66;5096665;28;20016;-45
2023/09/09 05:30:43;;;;;;;13.63;6.03;;;;;;;22.46;52.19;98769.47;5096671;28;20020;-45
2023/09/09 05:33:09;;;;;;;15.05;6.53;;;;;;;22.80;51.53;98773.25;5096727;28;20398;-45
2023/09/09 05:35:34;;;;;;;11.55;9.18;;;;;;;23.08;50.81;98767.22;5093562;28;20462;-45
2023/09/09 05:38:00;;;;;;;31.80;9.00;;;;;;;23.46;50.00;98772.75;5095048;28;20567;-46
2023/09/09 05:40:25;;;;;;;9.40;4.95;;;;;;;23.90;48.15;98782.50;5094654;28;20024;-45
2023/09/09 05:42:51;;;;;;;16.35;5.85;;;;;;;24.31;47.47;98770.50;5093357;28;20028;-46
2023/09/09 05:45:17;;;;;;;20.92;6.43;;;;;;;24.80;46.73;98777.31;5094600;28;20031;-45
2023/09/09 05:47:44;;;;;;;13.07;5.13;;;;;;;25.30;44.58;98777.63;5093168;28;20027;-45
2023/09/09 05:50:11;;;;;;;9.32;5.13;;;;;;;25.71;44.08;98770.69;5093569;28;20393;-45
2023/09/09 05:52:37;;;;;;;29.55;7.75;;;;;;;26.13;43.96;98776.09;5094461;28;20030;-45
2023/09/09 05:55:04;;;;;;;14.65;6.35;;;;;;;26.54;42.36;98770.66;5094344;28;20024;-45
2023/09/09 05:57:32;;;;;;;7.78;5.18;;;;;;;26.96;40.89;98770.50;5093003;28;20409;-45
2023/09/09 05:59:58;;;;;;;16.55;6.93;;;;;;;27.34;39.98;98767.44;5094409;28;20024;-45
2023/09/09 06:02:24;;;;;;;7.57;5.10;;;;;;;27.61;39.58;98774.56;5094227;28;20566;-45
2023/09/09 06:04:50;;;;;;;17.00;7.50;;;;;;;27.81;38.92;98768.59;5092949;28;20123;-45
2023/09/09 06:07:16;;;;;;;13.52;5.68;;;;;;;27.97;38.40;98766.31;5094094;28;20110;-45
2023/09/09 06:09:41;;;;;;;16.67;6.20;;;;;;;28.15;38.18;98769.84;5092836;28;20028;-45
2023/09/09 06:12:07;;;;;;;25.50;7.63;;;;;;;28.26;37.96;98773.81;5094125;28;20024;-45
2023/09/09 06:14:33;;;;;;;17.30;6.18;;;;;;;28.29;38.25;98775.06;5093770;28;20072;-45
2023/09/09 06:16:58;;;;;;;18.27;6.75;;;;;;;28.24;38.33;98784.13;5092681;28;20036;-45
2023/09/09 06:19:24;;;;;;;41.35;6.40;;;;;;;28.13;38.39;98793.66;5092599;28;20024;-45
2023/09/09 06:21:49;;;;;;;15.63;6.35;;;;;;;27.93;38.63;98789.63;5092555;28;20154;-45
2023/09/09 06:24:15;;;;;;;54.60;8.40;;;;;;;27.89;39.00;98797.53;5092772;28;20032;-45
2023/09/09 06:26:43;;;;;;;29.83;7.57;;;;;;;28.03;39.00;98786.63;5093746;28;20023;-45
2023/09/09 06:29:08;;;;;;;15.88;6.22;;;;;;;28.33;37.66;98794.16;5093696;28;20130;-45
2023/09/09 06:31:34;;;;;;;15.95;5.95;;;;;;;28.43;37.07;98791.13;5093658;28;20150;-45
2023/09/09 06:33:59;;;;;;;37.20;7.32;;;;;;;28.52;37.47;98789.28;5093646;28;20048;-45
2023/09/09 06:36:25;;;;;;;13.82;5.63;;;;;;;28.79;37.09;98787.38;5092218;28;20035;-45
2023/09/09 06:38:51;;;;;;;24.77;6.40;;;;;;;29.04;36.92;98789.25;5093484;28;20021;-45
2023/09/09 06:41:16;;;;;;;32.90;6.53;;;;;;;29.44;36.14;98789.03;5093448;28;20016;-45
2023/09/09 06:43:43;;;;;;;28.63;7.25;;;;;;;30.05;35.47;98786.09;5093407;28;20078;-45
2023/09/09 06:46:09;;;;;;;52.88;8.57;;;;;;;30.86;33.92;98775.97;5092964;28;20036;-46
2023/09/09 06:48:35;;;;;;;29.65;6.93;;;;;;;31.64;32.63;98792.59;5091911;28;20069;-45
2023/09/09 06:51:00;;;;;;;46.22;6.80;;;;;;;32.24;31.74;98795.66;5093313;28;20099;-46
2023/09/09 06:53:26;;;;;;;23.10;6.07;;;;;;;32.23;31.33;98786.69;5091867;28;20028;-46
2023/09/09 06:55:52;;;;;;;28.58;6.72;;;;;;;32.55;31.53;98786.88;5093193;28;20055;-46
2023/09/09 06:58:18;;;;;;;10.48;4.97;;;;;;;33.03;30.07;98784.34;5093173;28;20565;-46
2023/09/09 07:00:51;;;;;;;16.38;6.00;;;;;;;33.56;29.67;98786.88;5091882;28;20036;-46
2023/09/09 07:03:18;;;;;;;48.05;7.13;;;;;;;33.57;29.47;98791.97;5091726;28;20020;-46
2023/09/09 07:05:43;;;;;;;28.98;7.35;;;;;;;33.49;29.80;98795.66;5092922;28;20082;-46
2023/09/09 07:08:09;;;;;;;41.67;7.78;;;;;;;33.29;30.04;98789.31;5092883;28;20497;-46
2023/09/09 07:10:35;;;;;;;23.73;6.05;;;;;;;33.39;29.96;98801.63;5091674;28;20504;-46
2023/09/09 07:13:00;;;;;;;14.63;5.40;;;;;;;33.97;29.73;98806.56;5092935;28;20024;-46
2023/09/09 07:15:26;;;;;;;6.45;5.18;;;;;;;34.61;28.66;98805.25;5091178;28;20047;-46
2023/09/09 07:17:52;;;;;;;8.85;4.72;;;;;;;35.07;27.72;98804.59;5093141;28;20024;-46
2023/09/09 07:20:17;;;;;;;29.27;6.60;;;;;;;35.33;27.37;98811.34;5091434;28;20032;-46
2023/09/09 07:22:43;;;;;;;15.05;5.03;;;;;;;35.74;26.59;98809.72;5091478;28;20020;-46
2023/09/09 07:25:09;;;;;;;10.40;5.43;;;;;;;35.86;26.18;98808.75;5092705;28;20028;-46
2023/09/09 07:27:35;;;;;;;18.80;5.40;;;;;;;36.03;26.36;98817.56;5092602;28;20020;-46
2023/09/09 07:30:01;;;;;;;7.80;4.18;;;;;;;36.18;25.54;98811.97;5092645;28;20042;-46
2023/09/09 07:32:26;;;;;;;17.08;5.68;;;;;;;36.60;25.91;98804.69;5092603;28;20121;-46
2023/09/09 07:34:52;;;;;;;8.18;4.50;;;;;;;37.07;24.59;98808.78;5092583;28;20020;-46
2023/09/09 07:37:18;;;;;;;13.55;5.93;;;;;;;37.34;25.00;98800.44;5091523;28;20028;-46
2023/09/09 07:39:52;;;;;;;13.98;5.05;;;;;;;37.47;24.48;98804.50;5091121;28;20119;-46
2023/09/09 07:42:17;;;;;;;;;;;;;;;38.21;24.92;98802.69;5091890;28;20390;-46
2023/09/09 07:44:44;;;;;;;8.50;4.78;;;;;;;38.51;23.72;98798.94;5091066;28;19912;-46
2023/09/09 07:47:10;;;;;;;18.27;5.38;;;;;;;38.53;23.56;98802.09;5090885;28;20584;-47
2023/09/09 07:49:36;;;;;;;13.77;4.88;;;;;;;38.51;23.37;98807.16;5092542;28;20027;-47
2023/09/09 07:52:03;;;;;;;20.73;5.82;;;;;;;38.65;23.04;98807.25;5090920;28;20062;-47
2023/09/09 07:54:32;;;;;;;12.68;4.43;;;;;;;38.70;23.04;98806.88;5092123;28;20536;-47
2023/09/09 07:57:01;;;;;;;20.38;5.63;;;;;;;38.86;23.22;98814.78;5092151;28;20020;-46
2023/09/09 07:59:30;;;;;;;13.38;4.72;;;;;;;38.98;22.36;98812.84;5091445;28;20505;-47
2023/09/09 08:01:56;;;;;;;11.73;4.32;;;;;;;39.31;21.99;98817.25;5092080;28;20032;-47
2023/09/09 08:04:23;;;;;;;14.50;5.20;;;;;;;39.54;21.34;98814.13;5092044;28;20028;-46
2023/09/09 08:06:52;;;;;;;9.65;4.35;;;;;;;39.91;21.27;98823.97;5092130;28;20028;-46
2023/09/09 08:09:20;;;;;;;21.10;5.35;;;;;;;40.05;20.99;98817.66;5090629;28;20393;-46
2023/09/09 08:11:46;;;;;;;16.27;5.07;;;;;;;39.64;21.09;98815.31;5090850;28;20489;-46
2023/09/09 08:14:13;;;;;;;20.25;6.50;;;;;;;39.47;21.50;98825.13;5090518;28;20031;-46
2023/09/09 08:16:39;;;;;;;20.20;6.43;;;;;;;39.59;21.69;98823.97;5091724;28;20421;-47
2023/09/09 08:19:04;;;;;;;37.60;6.03;;;;;;;39.37;22.22;98823.13;5091941;28;20050;-47
2023/09/09 08:21:30;;;;;;;11.15;4.40;;;;;;;39.03;22.82;98827.00;5091893;28;20058;-46
2023/09/09 08:23:59;;;;;;;32.95;7.07;;;;;;;38.90;23.11;98823.81;5092095;28;20020;-46
2023/09/09 08:26:25;;;;;;;44.03;6.68;;;;;;;39.26;22.53;98821.16;5090524;28;20020;-46
2023/09/09 08:28:51;;;;;;;9.82;3.63;;;;;;;39.58;21.95;98812.16;5090455;28;20493;-46
2023/09/09 08:31:16;;;;;;;12.73;4.55;;;;;;;39.57;22.11;98818.06;5091762;28;20051;-46
2023/09/09 08:33:42;;;;;;;14.68;4.70;;;;;;;39.58;22.35;98825.13;5090439;28;20055;-47
2023/09/09 08:36:08;;;;;;;18.75;5.32;;;;;;;40.21;21.62;98809.75;5091736;28;20055;-46
2023/09/09 08:38:33;;;;;;;9.02;4.32;;;;;;;40.38;21.25;98821.13;5091706;28;20027;-46
2023/09/09 08:41:28;;;;;;;17.65;4.75;;;;;;;40.85;20.71;98814.28;5090378;28;20070;-47
2023/09/09 08:44:06;;;;;;;26.42;6.43;;;;;;;40.66;21.03;98818.25;5089785;28;20528;-46
2023/09/09 08:46:31;;;;;;;14.80;3.85;;;;;;;40.62;20.48;98816.72;5091712;28;20028;-46
2023/09/09 08:48:59;;;;;;;9.65;4.20;;;;;;;40.44;20.48;98814.81;5073432;28;20028;-47
2023/09/09 08:51:48;;;;;;;16.17;4.97;;;;;;;40.52;20.90;98812.81;5091589;28;20051;-47
2023/09/09 08:54:15;;;;;;;24.35;4.00;;;;;;;40.80;20.16;98819.41;5090385;28;20115;-47
2023/09/09 08:56:41;;;;;;;18.73;3.90;;;;;;;41.07;19.74;98811.38;5091482;28;20028;-47
2023/09/09 08:59:08;;;;;;;22.77;4.47;;;;;;;41.30;19.30;98808.88;5091498;28;20039;-47
2023/09/09 09:01:35;;;;;;;45.72;6.90;;;;;;;41.13;19.54;98807.81;5091482;28;20020;-47
2023/09/09 09:04:01;;;;;;;46.42;6.72;;;;;;;41.21;19.31;98807.78;5091391;28;20016;-47
2023/09/09 09:06:28;;;;;;;13.82;3.88;;;;;;;41.27;19.00;98811.66;5091456;28;20028;-47
2023/09/09 09:08:53;;;;;;;25.10;4.78;;;;;;;41.34;19.12;98803.38;5091695;28;20020;-47
2023/09/09 09:11:21;;;;;;;45.58;7.22;;;;;;;41.19;19.26;98802.66;5095203;28;20516;-47
2023/09/09 09:13:47;;;;;;;19.88;4.72;;;;;;;40.86;19.31;98815.06;5095463;28;20066;-46
2023/09/09 09:16:13;;;;;;;25.15;5.57;;;;;;;40.51;19.76;98805.75;5094879;28;20044;-46
2023/09/09 09:18:39;;;;;;;35.05;5.15;;;;;;;40.53;19.72;98808.91;5095358;28;20050;-46
2023/09/09 09:21:06;;;;;;;21.45;4.10;;;;;;;40.60;19.56;98805.31;5093761;28;20490;-46
2023/09/09 09:23:32;;;;;;;16.13;4.47;;;;;;;40.82;19.49;98806.03;5093694;28;20028;-46
2023/09/09 09:25:57;;;;;;;11.18;3.92;;;;;;;41.34;18.60;98811.63;5093689;28;20031;-47
2023/09/09 09:28:28;;;;;;;6.78;3.75;;;;;;;42.14;17.29;98803.44;5094901;28;20024;-46
2023/09/09 09:30:53;;;;;;;12.60;3.13;;;;;;;43.01;16.17;98802.00;5093595;28;20035;-47
2023/09/09 09:33:25;;;;;;;16.88;3.90;;;;;;;43.72;15.67;98796.56;5093522;28;20028;-46
2023/09/09 09:35:51;;;;;;;4.55;2.80;;;;;;;44.14;15.29;98799.75;5093430;28;20393;-47
2023/09/09 09:38:18;;;;;;;16.13;3.47;;;;;;;44.47;15.12;98791.59;5093397;28;20040;-47
2023/09/09 09:40:44;;;;;;;7.47;3.55;;;;;;;44.71;14.96;98788.72;5093385;28;20028;-47
2023/09/09 09:43:20;;;;;;;13.45;3.10;;;;;;;45.38;14.38;98791.16;5094692;28;20028;-47
2023/09/09 09:45:46;;;;;;;5.35;3.25;;;;;;;45.54;13.96;98791.16;5093336;28;20025;-47
2023/09/09 09:48:25;;;;;;;5.55;3.13;;;;;;;45.33;13.61;98788.91;5094511;28;20101;-47
2023/09/09 09:50:53;;;;;;;17.55;3.65;;;;;;;45.34;14.19;98782.16;5094848;28;20027;-47
2023/09/09 09:53:19;;;;;;;14.15;4.28;;;;;;;45.65;14.26;98785.34;5094477;28;20028;-47
2023/09/09 09:55:45;;;;;;;8.00;2.90;;;;;;;45.40;13.63;98789.53;5093116;28;20027;-47
2023/09/09 09:58:13;;;;;;;4.30;2.63;;;;;;;44.80;14.24;98780.63;5093363;28;20043;-47
2023/09/09 10:00:39;;;;;;;7.80;3.40;;;;;;;44.41;14.35;98783.00;5093152;28;20024;-47
2023/09/09 10:03:06;;;;;;;9.88;3.58;;;;;;;44.24;14.33;98790.47;5094293;28;20031;-47
2023/09/09 10:05:34;;;;;;;4.88;2.90;;;;;;;44.20;14.26;98780.69;5092956;28;20382;-47
2023/09/09 10:08:20;;;;;;;4.28;2.55;;;;;;;44.11;13.90;98780.47;5094188;28;20082;-47
2023/09/09 10:11:02;;;;;;;11.80;3.92;;;;;;;44.26;14.27;98771.44;5093257;28;20047;-47
2023/09/09 10:13:43;;;;;;;215.80;39.92;;;;;;;44.35;14.48;98762.56;5094148;28;20036;-47
2023/09/09 10:16:11;;;;;;;49.25;7.82;;;;;;;44.34;14.15;98766.56;5093837;28;20513;-46
2023/09/09 10:18:38;;;;;;;21.30;6.05;;;;;;;44.66;14.12;98757.56;5094035;28;20024;-47
2023/09/09 10:21:06;;;;;;;5.55;2.67;;;;;;;44.86;13.82;98762.28;5091935;28;20028;-46
2023/09/09 10:23:32;;;;;;;25.20;4.72;;;;;;;44.92;13.97;98757.81;5093923;28;20020;-47
2023/09/09 10:26:00;;;;;;;17.38;4.35;;;;;;;45.09;13.82;98746.72;5093749;28;20064;-47
2023/09/09 10:28:26;;;;;;;9.27;3.55;;;;;;;45.31;13.68;98742.25;5092436;28;20016;-46
2023/09/09 10:30:53;;;;;;;9.52;3.00;;;;;;;45.39;13.29;98751.16;5093738;28;20047;-47
2023/09/09 10:33:20;;;;;;;9.75;3.00;;;;;;;45.44;13.63;98745.88;5093724;28;20559;-47
2023/09/09 10:35:50;;;;;;;3.10;2.67;;;;;;;45.26;13.29;98742.78;5093697;28;20028;-47
2023/09/09 10:38:18;;;;;;;12.30;3.00;;;;;;;44.46;13.81;98752.06;5093618;28;20074;-47
2023/09/09 10:40:48;;;;;;;9.07;3.58;;;;;;;44.16;14.17;98744.00;5093499;28;20551;-46
2023/09/09 10:43:14;;;;;;;11.27;3.00;;;;;;;44.53;13.94;98737.28;5093494;28;20516;-47
2023/09/09 10:45:43;;;;;;;6.95;2.85;;;;;;;44.59;13.91;98741.13;5093440;28;20031;-47
2023/09/09 10:48:13;;;;;;;8.60;3.28;;;;;;;44.29;14.23;98733.84;5093526;28;20024;-47
2023/09/09 10:50:46;;;;;;;4.18;2.67;;;;;;;44.28;14.01;98737.81;5093377;28;20028;-47
2023/09/09 10:53:32;;;;;;;9.80;2.78;;;;;;;43.54;14.71;98740.78;5093346;28;20027;-47
2023/09/09 10:55:59;;;;;;;7.80;3.13;;;;;;;43.08;14.49;98740.34;5092993;28;20036;-47
2023/09/09 10:58:37;;;;;;;3.97;2.85;;;;;;;42.83;15.13;98735.19;5093182;28;20024;-46
2023/09/09 11:01:05;;;;;;;6.40;3.55;;;;;;;42.76;14.94;98741.59;5093363;28;20086;-46
2023/09/09 11:03:40;;;;;;;11.90;3.97;;;;;;;43.06;14.85;98734.47;5093120;28;20528;-47
2023/09/09 11:06:10;;;;;;;13.93;3.90;;;;;;;43.37;15.26;98729.63;5093078;28;20065;-47
2023/09/09 11:08:41;;;;;;;9.25;3.30;;;;;;;43.74;14.91;98730.56;5092998;28;20432;-47
2023/09/09 11:11:15;;;;;;;5.65;3.10;;;;;;;43.95;14.64;98737.69;5093075;28;20085;-47
2023/09/09 11:13:57;;;;;;;8.07;3.08;;;;;;;43.30;14.46;98724.22;5091923;28;20370;-47
2023/09/09 11:16:34;;;;;;;3.83;2.83;;;;;;;42.85;15.05;98728.06;5092749;28;20040;-47
2023/09/09 11:19:08;;;;;;;4.03;2.70;;;;;;;42.52;15.58;98726.16;5092819;28;20425;-47
2023/09/09 11:21:43;;;;;;;3.53;2.92;;;;;;;41.94;16.63;98723.28;5092844;28;20035;-46
2023/09/09 11:24:09;;;;;;;6.13;2.88;;;;;;;41.42;16.63;98724.19;5091459;28;20035;-47
2023/09/09 11:26:40;;;;;;;16.35;4.03;;;;;;;41.11;17.08;98727.59;5091653;28;20528;-47